createdAt,value
2023-03-25T23:12:05.741Z,999.57
2023-03-25T23:13:05.307Z,999.59
2023-03-25T23:14:05.451Z,999.61
2023-03-25T23:15:05.494Z,999.63
2023-03-25T23:16:05.979Z,999.63
2023-03-25T23:16:10.400Z,999.66
2023-03-25T23:17:02.383Z,999.64
2023-03-25T23:18:02.474Z,999.62
2023-03-25T23:19:02.607Z,999.58
2023-03-25T23:20:02.803Z,999.58
2023-03-25T23:21:02.845Z,999.56
2023-03-25T23:22:02.817Z,999.59
2023-03-25T23:23:02.818Z,999.57
2023-03-25T23:24:03.000Z,999.55
2023-03-25T23:25:02.588Z,999.58
2023-03-25T23:26:03.881Z,999.58
2023-03-25T23:27:03.433Z,999.54
2023-03-25T23:28:03.275Z,999.50
2023-03-25T23:29:03.529Z,999.47
2023-03-25T23:30:03.044Z,999.44
2023-03-25T23:31:02.994Z,999.51
2023-03-25T23:32:03.330Z,999.49
2023-03-25T23:33:03.608Z,999.43
2023-03-25T23:34:03.054Z,999.42
2023-03-25T23:35:03.385Z,999.45
2023-03-25T23:36:03.470Z,999.44
2023-03-25T23:37:02.633Z,999.43
2023-03-25T23:38:02.677Z,999.45
2023-03-25T23:39:02.624Z,999.43
2023-03-25T23:40:02.886Z,999.45
2023-03-25T23:41:02.983Z,999.46
2023-03-25T23:42:02.946Z,999.42
2023-03-25T23:43:03.249Z,999.48
2023-03-25T23:44:03.077Z,999.45
2023-03-25T23:45:03.312Z,999.51
2023-03-25T23:46:03.397Z,999.49
2023-03-25T23:47:02.781Z,999.51
2023-03-25T23:48:02.872Z,999.51
2023-03-25T23:49:03.005Z,999.49
2023-03-25T23:50:02.811Z,999.53
2023-03-25T23:51:02.587Z,999.55
